createdAt,value
2023-04-28T00:00:02.780Z,99.90
2023-04-28T00:02:38.266Z,99.90
2023-04-28T00:05:06.590Z,99.90
2023-04-28T00:07:34.805Z,99.90
2023-04-28T00:10:02.078Z,99.90
2023-04-28T00:12:33.281Z,99.90
2023-04-28T00:15:01.058Z,99.90
2023-04-28T00:17:33.169Z,99.90
2023-04-28T00:20:00.895Z,99.90
2023-04-28T00:22:28.683Z,99.90
2023-04-28T00:24:55.871Z,99.90
2023-04-28T00:27:23.297Z,99.90
2023-04-28T00:29:50.544Z,99.90
2023-04-28T00:32:17.823Z,99.90
2023-04-28T00:34:44.987Z,99.90
2023-04-28T00:37:12.167Z,99.90
2023-04-28T00:39:39.418Z,99.90
2023-04-28T00:42:06.673Z,99.90
2023-04-28T00:44:33.977Z,99.90
2023-04-28T00:47:01.809Z,99.90
2023-04-28T00:49:30.372Z,99.90
2023-04-28T00:51:58.205Z,99.90
2023-04-28T00:54:26.103Z,99.90
2023-04-28T00:56:55.028Z,99.90
2023-04-28T00:59:22.295Z,99.90
2023-04-28T01:01:50.573Z,99.90
2023-04-28T01:04:21.379Z,99.90
2023-04-28T01:06:51.067Z,99.90
2023-04-28T01:09:18.778Z,99.90
2023-04-28T01:11:46.601Z,99.90
2023-04-28T01:14:21.566Z,99.90
2023-04-28T01:16:49.719Z,99.90
2023-04-28T01:19:23.894Z,99.90
2023-04-28T01:21:52.903Z,99.90
2023-04-28T01:24:21.951Z,99.90
2023-04-28T01:26:50.677Z,99.90
2023-04-28T01:29:19.234Z,99.90
2023-04-28T01:31:46.727Z,99.90
2023-04-28T01:34:14.291Z,99.90
2023-04-28T01:36:42.838Z,99.90
2023-04-28T01:39:11.341Z,99.90
2023-04-28T01:41:41.121Z,99.90
2023-04-28T01:44:08.692Z,99.90
2023-04-28T01:46:36.761Z,99.90
2023-04-28T01:49:04.866Z,99.90
2023-04-28T01:51:32.856Z,99.90
2023-04-28T01:54:01.553Z,99.90
2023-04-28T01:56:30.081Z,99.90
2023-04-28T01:58:58.510Z,99.90
2023-04-28T02:01:26.168Z,99.90
2023-04-28T02:03:55.656Z,99.90
2023-04-28T02:06:24.550Z,99.90
2023-04-28T02:08:57.192Z,99.90
2023-04-28T02:11:25.027Z,99.90
2023-04-28T02:13:57.614Z,99.90
2023-04-28T02:16:44.754Z,99.90
2023-04-28T02:19:12.166Z,99.90
2023-04-28T02:21:39.309Z,99.90
2023-04-28T02:24:08.266Z,99.90
2023-04-28T02:26:35.753Z,99.90
2023-04-28T02:29:04.456Z,99.90
2023-04-28T02:31:33.921Z,99.90
2023-04-28T02:34:02.959Z,99.90
2023-04-28T02:36:32.754Z,99.90
2023-04-28T02:39:04.574Z,99.90
2023-04-28T02:41:34.618Z,99.90
2023-04-28T02:44:02.268Z,99.90
2023-04-28T02:46:29.509Z,99.90
2023-04-28T02:48:57.801Z,99.90
2023-04-28T02:51:25.141Z,99.90
2023-04-28T02:53:52.467Z,99.90
2023-04-28T02:56:19.979Z,99.90
2023-04-28T02:58:47.608Z,99.90
2023-04-28T03:01:15.151Z,99.90
2023-04-28T03:03:42.733Z,99.90
2023-04-28T03:06:10.172Z,99.90
2023-04-28T03:08:37.466Z,99.90
2023-04-28T03:11:05.120Z,99.90
2023-04-28T03:13:32.756Z,99.90
2023-04-28T03:16:00.186Z,99.90
2023-04-28T03:18:28.536Z,99.90
2023-04-28T03:20:56.377Z,99.90
2023-04-28T03:23:23.629Z,99.90
2023-04-28T03:25:51.365Z,99.90
2023-04-28T03:28:21.004Z,99.90
2023-04-28T03:30:48.298Z,99.90
2023-04-28T03:33:16.384Z,99.90
2023-04-28T03:35:43.741Z,99.90
2023-04-28T03:38:11.079Z,99.90
2023-04-28T03:40:38.523Z,99.90
2023-04-28T03:43:12.665Z,99.90
2023-04-28T03:46:09.583Z,99.90
2023-04-28T03:48:36.974Z,99.90
2023-04-28T03:51:04.594Z,99.90
2023-04-28T03:53:32.109Z,99.90
2023-04-28T03:55:59.541Z,99.90
2023-04-28T03:58:28.166Z,99.90
2023-04-28T04:00:55.429Z,99.90
2023-04-28T04:03:26.679Z,99.90
2023-04-28T04:05:57.410Z,99.90
2023-04-28T04:08:25.718Z,99.90
2023-04-28T04:10:54.998Z,99.90
2023-04-28T04:13:22.917Z,99.90
2023-04-28T04:15:52.769Z,99.90
2023-04-28T04:18:21.787Z,99.90
2023-04-28T04:21:07.529Z,99.90
2023-04-28T04:23:35.144Z,99.90
2023-04-28T04:26:02.447Z,99.90
2023-04-28T04:28:29.592Z,99.90
2023-04-28T04:30:56.881Z,99.90
2023-04-28T04:33:24.329Z,99.90
2023-04-28T04:35:52.001Z,99.90
2023-04-28T04:38:19.560Z,99.90
2023-04-28T04:40:46.893Z,99.90
2023-04-28T04:43:14.406Z,99.90
2023-04-28T04:45:48.837Z,99.90
2023-04-28T04:48:17.061Z,99.90
2023-04-28T04:50:45.164Z,99.90
2023-04-28T04:53:16.024Z,99.90
2023-04-28T04:55:44.853Z,99.90
2023-04-28T04:58:12.174Z,99.90
2023-04-28T05:00:57.943Z,99.90
2023-04-28T05:03:25.348Z,99.90
2023-04-28T05:05:53.240Z,99.90
2023-04-28T05:08:40.663Z,99.90
2023-04-28T05:11:07.990Z,99.90
2023-04-28T05:13:35.529Z,99.90
2023-04-28T05:16:04.304Z,99.90
2023-04-28T05:18:45.118Z,99.90
2023-04-28T05:21:12.652Z,99.90
2023-04-28T05:23:39.856Z,99.90
2023-04-28T05:26:08.726Z,99.90
2023-04-28T05:28:36.376Z,99.90
2023-04-28T05:31:03.818Z,99.90
2023-04-28T05:33:33.195Z,99.90
2023-04-28T05:36:00.410Z,99.90
2023-04-28T05:38:27.950Z,99.90
2023-04-28T05:40:56.568Z,99.90
2023-04-28T05:43:23.903Z,99.90
2023-04-28T05:45:51.339Z,99.90
2023-04-28T05:48:19.619Z,99.90
2023-04-28T05:50:47.244Z,99.90
2023-04-28T05:53:14.713Z,99.90
2023-04-28T05:55:42.103Z,99.90
2023-04-28T05:58:10.126Z,99.90
2023-04-28T06:00:38.450Z,99.90
2023-04-28T06:03:05.995Z,99.90
2023-04-28T06:05:33.712Z,99.90
2023-04-28T06:08:01.068Z,99.90
2023-04-28T06:10:28.402Z,99.90
2023-04-28T06:12:55.565Z,99.90
2023-04-28T06:15:22.897Z,99.90
2023-04-28T06:17:50.145Z,99.90
2023-04-28T06:20:18.333Z,99.90
2023-04-28T06:22:45.562Z,99.90
2023-04-28T06:25:12.759Z,99.90
2023-04-28T06:27:47.979Z,99.90
2023-04-28T06:30:22.411Z,99.90
2023-04-28T06:32:49.865Z,99.90
2023-04-28T06:35:18.580Z,99.70
2023-04-28T06:37:45.820Z,99.10
2023-04-28T06:40:13.091Z,98.90
2023-04-28T06:42:50.433Z,98.70
2023-04-28T06:45:24.056Z,97.60
2023-04-28T06:47:51.862Z,97.10
2023-04-28T06:50:19.255Z,96.40
2023-04-28T06:52:46.393Z,95.60
2023-04-28T06:55:16.788Z,94.30
2023-04-28T06:57:44.743Z,93.80
2023-04-28T07:00:12.861Z,93.20
2023-04-28T07:02:40.296Z,92.30
2023-04-28T07:05:07.915Z,89.20
2023-04-28T07:07:35.286Z,89.30
2023-04-28T07:10:02.812Z,90.10
2023-04-28T07:12:31.281Z,87.50
2023-04-28T07:14:58.482Z,85.30
2023-04-28T07:17:25.734Z,86.20
2023-04-28T07:19:52.913Z,84.60
2023-04-28T07:22:20.049Z,84.00
2023-04-28T07:24:47.251Z,84.20
2023-04-28T07:27:14.438Z,84.40
2023-04-28T07:29:41.740Z,84.40
2023-04-28T07:32:10.704Z,83.70
2023-04-28T07:34:38.813Z,82.70
2023-04-28T07:37:07.036Z,81.50
2023-04-28T07:39:35.339Z,83.10
2023-04-28T07:42:03.760Z,82.70
2023-04-28T07:44:32.021Z,82.70
2023-04-28T07:47:02.849Z,81.90
2023-04-28T07:49:30.396Z,80.20
2023-04-28T07:51:58.199Z,77.00
2023-04-28T07:54:26.396Z,75.20
2023-04-28T07:56:53.670Z,75.20
2023-04-28T07:59:20.966Z,74.60
2023-04-28T08:01:48.331Z,72.40
2023-04-28T08:04:16.226Z,71.30
2023-04-28T08:06:44.012Z,70.70
2023-04-28T08:09:11.410Z,68.90
2023-04-28T08:11:38.634Z,67.80
2023-04-28T08:14:06.020Z,66.00
2023-04-28T08:16:34.519Z,66.80
2023-04-28T08:19:02.071Z,66.10
2023-04-28T08:21:29.253Z,65.50
2023-04-28T08:23:56.477Z,64.60
2023-04-28T08:26:24.869Z,64.00
2023-04-28T08:28:53.787Z,63.90
2023-04-28T08:31:21.445Z,63.70
2023-04-28T08:33:51.313Z,63.20
2023-04-28T08:36:18.954Z,63.30
2023-04-28T08:38:46.362Z,62.70
2023-04-28T08:41:15.945Z,62.20
2023-04-28T08:43:43.579Z,61.40
2023-04-28T08:46:11.413Z,60.90
2023-04-28T08:48:45.220Z,62.10
2023-04-28T08:51:25.723Z,62.10
2023-04-28T08:56:28.017Z,61.00
2023-04-28T08:58:55.518Z,61.40
2023-04-28T09:01:23.711Z,61.70
2023-04-28T09:03:51.733Z,61.00
2023-04-28T09:06:23.025Z,60.00
2023-04-28T09:08:50.174Z,61.40
2023-04-28T09:11:17.379Z,61.00
2023-04-28T09:13:44.529Z,60.90
2023-04-28T09:16:12.204Z,61.00
2023-04-28T09:18:39.862Z,59.30
2023-04-28T09:21:10.674Z,58.70
2023-04-28T09:23:49.352Z,58.30
2023-04-28T09:26:19.332Z,58.40
2023-04-28T09:28:46.698Z,58.10
2023-04-28T09:31:25.347Z,58.40
2023-04-28T09:34:01.560Z,58.30
2023-04-28T09:36:30.830Z,57.90
2023-04-28T09:39:00.161Z,58.40
2023-04-28T09:41:41.949Z,58.40
2023-04-28T09:44:21.521Z,58.90
2023-04-28T09:46:48.859Z,59.50
2023-04-28T09:49:16.213Z,59.60
2023-04-28T09:51:43.452Z,59.60
2023-04-28T09:54:12.851Z,59.70
2023-04-28T09:56:42.630Z,59.60
2023-04-28T09:59:10.198Z,59.90
2023-04-28T10:01:40.766Z,59.50
2023-04-28T10:04:12.294Z,58.50
2023-04-28T10:06:40.474Z,58.70
2023-04-28T10:09:08.470Z,58.80
2023-04-28T10:11:36.015Z,59.20
2023-04-28T10:14:03.167Z,65.50
2023-04-28T10:16:33.170Z,63.80
2023-04-28T10:19:03.333Z,62.60
2023-04-28T10:21:35.834Z,63.20
2023-04-28T10:24:28.358Z,62.20
2023-04-28T10:27:04.466Z,61.40
2023-04-28T10:29:36.127Z,60.80
2023-04-28T10:32:24.052Z,61.50
2023-04-28T10:34:51.508Z,62.20
2023-04-28T10:37:19.529Z,61.30
2023-04-28T10:40:28.372Z,62.30
2023-04-28T10:42:56.722Z,63.50
2023-04-28T10:45:49.136Z,60.20
2023-04-28T10:48:16.563Z,60.00
2023-04-28T10:51:04.667Z,59.00
2023-04-28T10:53:51.161Z,58.40
2023-04-28T10:56:27.008Z,57.80
2023-04-28T10:58:58.507Z,59.90
2023-04-28T11:01:29.842Z,58.80
2023-04-28T11:04:18.055Z,58.00
2023-04-28T11:07:13.483Z,58.00
2023-04-28T11:09:41.970Z,57.80
2023-04-28T11:12:11.310Z,57.60
2023-04-28T11:14:40.848Z,57.00
2023-04-28T11:17:11.409Z,56.80
2023-04-28T11:19:41.759Z,57.00
2023-04-28T11:22:20.476Z,60.90
2023-04-28T11:25:01.564Z,57.50
2023-04-28T11:27:34.653Z,56.70
2023-04-28T11:30:02.326Z,56.30
2023-04-28T11:32:35.805Z,55.50
2023-04-28T11:35:04.885Z,55.00
2023-04-28T11:37:33.747Z,55.60
2023-04-28T11:40:11.336Z,53.70
2023-04-28T11:42:50.193Z,53.40
2023-04-28T11:45:17.859Z,54.60
2023-04-28T11:47:45.306Z,54.10
2023-04-28T11:50:14.277Z,52.50
2023-04-28T11:55:39.267Z,51.70
2023-04-28T11:58:23.928Z,52.40
2023-04-28T11:59:21.467Z,51.80
2023-04-28T12:01:11.132Z,52.20
2023-04-28T12:03:48.543Z,51.70
2023-04-28T12:06:19.389Z,51.50
2023-04-28T12:08:49.405Z,51.60
2023-04-28T12:11:20.101Z,51.70
2023-04-28T12:14:14.566Z,52.00
2023-04-28T12:16:44.333Z,55.00
2023-04-28T12:19:12.682Z,51.80
2023-04-28T12:21:40.550Z,51.70
2023-04-28T12:24:19.142Z,50.50
2023-04-28T12:26:46.794Z,49.20
2023-04-28T12:29:40.252Z,49.60
2023-04-28T12:32:10.509Z,49.70
2023-04-28T12:34:39.842Z,49.80
2023-04-28T12:37:07.521Z,49.40
2023-04-28T12:39:40.481Z,48.50
2023-04-28T12:42:08.165Z,48.50
2023-04-28T12:44:37.652Z,48.90
2023-04-28T12:47:07.408Z,48.50
2023-04-28T12:49:38.422Z,48.10
2023-04-28T12:52:06.947Z,46.40
2023-04-28T12:54:34.291Z,46.30
2023-04-28T12:57:03.148Z,46.20
2023-04-28T12:59:31.720Z,46.30
2023-04-28T13:01:59.195Z,45.60
2023-04-28T13:04:27.291Z,44.40
2023-04-28T13:06:54.905Z,42.70
2023-04-28T13:09:22.113Z,40.20
2023-04-28T13:11:49.487Z,38.70
2023-04-28T13:14:16.997Z,37.30
2023-04-28T13:16:44.266Z,36.10
2023-04-28T13:21:42.480Z,32.80
2023-04-28T13:24:11.026Z,31.40
2023-04-28T13:26:38.257Z,31.00
2023-04-28T13:29:05.927Z,30.90
2023-04-28T13:31:33.158Z,31.30
2023-04-28T13:34:02.158Z,30.80
2023-04-28T13:36:29.912Z,30.00
2023-04-28T13:38:57.361Z,30.00
2023-04-28T13:41:25.952Z,29.40
2023-04-28T13:43:53.966Z,29.70
2023-04-28T13:46:21.427Z,29.60
2023-04-28T13:48:50.300Z,30.30
2023-04-28T13:51:17.866Z,30.30
2023-04-28T13:53:45.123Z,30.70
2023-04-28T13:56:12.377Z,30.70
2023-04-28T13:58:39.740Z,30.70
2023-04-28T14:01:08.063Z,31.30
2023-04-28T14:03:36.222Z,31.90
2023-04-28T14:06:04.371Z,32.00
2023-04-28T14:08:32.407Z,32.30
2023-04-28T14:10:59.890Z,32.40
2023-04-28T14:13:27.243Z,32.40
2023-04-28T14:15:59.304Z,32.60
2023-04-28T14:18:28.252Z,32.80
2023-04-28T14:20:56.123Z,33.00
2023-04-28T14:23:23.524Z,33.20
2023-04-28T14:25:57.049Z,33.00
2023-04-28T14:28:24.366Z,32.90
2023-04-28T14:30:54.221Z,32.60
2023-04-28T14:33:27.210Z,32.80
2023-04-28T14:35:54.632Z,32.90
2023-04-28T14:38:22.123Z,33.10
2023-04-28T14:40:49.449Z,32.80
2023-04-28T14:43:16.750Z,32.80
2023-04-28T14:45:44.769Z,33.20
2023-04-28T14:48:13.409Z,33.50
2023-04-28T14:50:43.028Z,34.10
2023-04-28T14:53:10.223Z,34.00
2023-04-28T14:55:37.399Z,33.60
2023-04-28T14:58:04.587Z,33.60
2023-04-28T15:00:32.228Z,34.00
2023-04-28T15:02:59.748Z,34.30
2023-04-28T15:05:27.367Z,34.00
2023-04-28T15:07:54.647Z,33.50
2023-04-28T15:10:21.899Z,35.00
2023-04-28T15:12:49.381Z,34.40
2023-04-28T15:15:16.888Z,34.40
2023-04-28T15:17:45.506Z,34.20
2023-04-28T15:20:12.861Z,34.20
2023-04-28T15:22:40.997Z,35.30
2023-04-28T15:25:08.508Z,37.20
2023-04-28T15:27:36.615Z,35.20
2023-04-28T15:30:04.977Z,35.30
2023-04-28T15:32:32.562Z,34.70
2023-04-28T15:35:02.832Z,33.80
2023-04-28T15:37:37.738Z,33.60
2023-04-28T15:40:12.583Z,33.60
2023-04-28T15:42:42.447Z,34.00
2023-04-28T15:45:13.431Z,34.00
2023-04-28T15:47:42.710Z,34.20
2023-04-28T15:50:10.938Z,35.70
2023-04-28T15:52:46.284Z,35.30
2023-04-28T15:55:14.823Z,36.30
2023-04-28T15:57:42.795Z,37.00
2023-04-28T16:00:15.990Z,37.60
2023-04-28T16:02:44.101Z,38.50
2023-04-28T16:05:11.823Z,39.30
2023-04-28T16:07:42.350Z,38.80
2023-04-28T16:10:15.087Z,38.60
2023-04-28T16:12:42.756Z,38.80
2023-04-28T16:15:12.601Z,39.00
2023-04-28T16:17:40.745Z,39.30
2023-04-28T16:20:09.832Z,39.80
2023-04-28T16:22:39.177Z,39.80
2023-04-28T16:25:07.257Z,40.20
2023-04-28T16:27:36.689Z,41.00
2023-04-28T16:30:07.524Z,41.10
2023-04-28T16:32:37.341Z,41.50
2023-04-28T16:35:06.570Z,41.50
2023-04-28T16:37:36.377Z,41.40
2023-04-28T16:40:04.630Z,41.70
2023-04-28T16:42:36.933Z,42.30
2023-04-28T16:45:04.816Z,42.40
2023-04-28T16:47:34.443Z,43.00
2023-04-28T16:50:01.809Z,42.90
2023-04-28T16:52:31.291Z,43.00
2023-04-28T16:54:58.977Z,42.90
2023-04-28T16:57:26.502Z,43.00
2023-04-28T16:59:53.725Z,43.30
2023-04-28T17:02:21.449Z,44.00
2023-04-28T17:04:48.719Z,44.30
2023-04-28T17:07:16.023Z,44.30
2023-04-28T17:09:43.263Z,44.60
2023-04-28T17:12:10.460Z,44.80
2023-04-28T17:14:39.187Z,45.20
2023-04-28T17:17:06.544Z,45.40
2023-04-28T17:19:33.845Z,45.30
2023-04-28T17:22:03.203Z,45.60
2023-04-28T17:24:30.479Z,45.70
2023-04-28T17:26:57.916Z,45.90
2023-04-28T17:29:25.373Z,46.10
2023-04-28T17:31:53.128Z,46.10
2023-04-28T17:34:20.659Z,46.40
2023-04-28T17:36:47.809Z,46.30
2023-04-28T17:39:16.578Z,46.50
2023-04-28T17:41:45.075Z,46.50
2023-04-28T17:44:12.616Z,46.50
2023-04-28T17:46:39.956Z,46.60
2023-04-28T17:49:07.467Z,46.90
2023-04-28T17:51:34.776Z,47.00
2023-04-28T17:54:02.223Z,47.40
2023-04-28T17:56:31.024Z,47.60
2023-04-28T17:58:58.374Z,48.00
2023-04-28T18:01:25.590Z,48.20
2023-04-28T18:03:52.960Z,48.40
2023-04-28T18:06:22.411Z,48.90
2023-04-28T18:08:50.042Z,49.20
2023-04-28T18:11:17.207Z,49.30
2023-04-28T18:13:44.380Z,49.80
2023-04-28T18:16:14.918Z,49.40
2023-04-28T18:18:42.440Z,49.30
2023-04-28T18:21:10.033Z,49.20
2023-04-28T18:23:37.490Z,49.30
2023-04-28T18:26:04.618Z,49.30
2023-04-28T18:28:33.933Z,49.30
2023-04-28T18:31:06.299Z,49.00
2023-04-28T18:33:34.090Z,49.00
2023-04-28T18:36:07.290Z,49.20
2023-04-28T18:38:36.533Z,49.10
2023-04-28T18:41:17.765Z,48.90
2023-04-28T18:43:45.243Z,48.90
2023-04-28T18:46:12.681Z,49.00
2023-04-28T18:48:40.314Z,48.90
2023-04-28T18:51:07.982Z,48.90
2023-04-28T18:53:36.230Z,48.80
2023-04-28T18:56:03.866Z,48.70
2023-04-28T18:58:31.501Z,48.90
2023-04-28T19:00:58.822Z,49.00
2023-04-28T19:03:27.108Z,48.80
2023-04-28T19:05:54.841Z,48.70
2023-04-28T19:08:22.215Z,48.50
2023-04-28T19:10:49.584Z,48.40
2023-04-28T19:13:17.424Z,48.40
2023-04-28T19:15:44.609Z,48.80
2023-04-28T19:18:12.574Z,48.80
2023-04-28T19:20:42.260Z,49.10
2023-04-28T19:23:09.640Z,49.00
2023-04-28T19:25:37.048Z,49.20
2023-04-28T19:28:04.798Z,49.50
2023-04-28T19:30:32.455Z,49.60
2023-04-28T19:32:59.832Z,49.50
2023-04-28T19:35:29.401Z,49.40
2023-04-28T19:37:56.586Z,49.50
2023-04-28T19:40:26.303Z,49.70
2023-04-28T19:42:55.548Z,49.60
2023-04-28T19:45:23.035Z,49.70
2023-04-28T19:47:50.161Z,50.00
2023-04-28T19:50:18.796Z,50.30
2023-04-28T19:52:46.501Z,50.70
2023-04-28T19:55:18.351Z,51.50
2023-04-28T19:57:46.013Z,53.60
2023-04-28T20:00:13.982Z,54.80
2023-04-28T20:02:42.991Z,56.00
2023-04-28T20:05:10.371Z,56.80
2023-04-28T20:07:41.860Z,57.60
2023-04-28T20:10:09.950Z,58.40
2023-04-28T20:12:37.135Z,58.20
2023-04-28T20:15:05.152Z,57.80
2023-04-28T20:17:32.894Z,57.80
2023-04-28T20:20:00.270Z,56.40
2023-04-28T20:22:27.485Z,55.60
2023-04-28T20:24:57.799Z,54.60
2023-04-28T20:27:26.437Z,54.30
2023-04-28T20:29:53.923Z,53.40
2023-04-28T20:32:21.331Z,54.30
2023-04-28T20:34:48.745Z,55.00
2023-04-28T20:37:16.165Z,54.30
2023-04-28T20:39:43.485Z,53.50
2023-04-28T20:42:10.855Z,52.10
2023-04-28T20:44:38.151Z,52.30
2023-04-28T20:47:05.645Z,52.10
2023-04-28T20:49:32.981Z,53.10
2023-04-28T20:52:05.201Z,53.60
2023-04-28T20:54:35.599Z,54.40
2023-04-28T20:57:04.948Z,54.20
2023-04-28T20:59:33.118Z,54.00
2023-04-28T21:02:01.015Z,54.10
2023-04-28T21:04:28.670Z,54.10
2023-04-28T21:06:56.097Z,53.30
2023-04-28T21:09:25.344Z,53.80
2023-04-28T21:11:53.282Z,53.80
2023-04-28T21:14:21.914Z,53.90
2023-04-28T21:16:49.248Z,53.30
2023-04-28T21:19:17.460Z,53.00
2023-04-28T21:21:45.243Z,52.90
2023-04-28T21:24:12.699Z,53.80
2023-04-28T21:26:40.900Z,54.30
2023-04-28T21:29:09.368Z,54.00
2023-04-28T21:31:37.895Z,54.20
2023-04-28T21:34:05.615Z,54.00
2023-04-28T21:36:33.298Z,53.70
2023-04-28T21:39:01.236Z,54.00
2023-04-28T21:41:28.569Z,54.90
2023-04-28T21:43:56.036Z,54.80
2023-04-28T21:46:23.671Z,55.00
2023-04-28T21:48:51.437Z,55.80
2023-04-28T21:51:19.174Z,55.50
2023-04-28T21:53:46.381Z,54.10
2023-04-28T21:56:15.158Z,52.90
2023-04-28T21:58:42.436Z,52.40
2023-04-28T22:01:09.832Z,52.30
2023-04-28T22:03:38.864Z,52.30
2023-04-28T22:06:06.188Z,52.90
2023-04-28T22:08:33.760Z,52.90
2023-04-28T22:11:01.227Z,52.70
2023-04-28T22:13:28.386Z,52.60
2023-04-28T22:15:56.403Z,52.80
2023-04-28T22:18:23.608Z,53.60
2023-04-28T22:20:51.692Z,53.90
2023-04-28T22:23:19.035Z,54.70
2023-04-28T22:25:46.417Z,54.30
2023-04-28T22:28:14.094Z,54.90
2023-04-28T22:30:41.746Z,56.00
2023-04-28T22:33:08.960Z,56.40
2023-04-28T22:35:36.188Z,56.90
2023-04-28T22:38:03.473Z,56.90
2023-04-28T22:40:30.951Z,56.20
2023-04-28T22:42:58.128Z,56.20
2023-04-28T22:45:25.277Z,56.40
2023-04-28T22:47:52.691Z,56.50
2023-04-28T22:50:20.697Z,56.70
2023-04-28T22:52:48.246Z,57.30
2023-04-28T22:55:15.811Z,58.60
2023-04-28T22:57:43.090Z,58.90
2023-04-28T23:00:10.777Z,59.30
2023-04-28T23:02:38.306Z,59.10
2023-04-28T23:05:06.305Z,58.80
2023-04-28T23:07:33.516Z,59.10
2023-04-28T23:10:00.666Z,59.10
2023-04-28T23:12:28.541Z,59.60
2023-04-28T23:14:55.747Z,59.20
2023-04-28T23:17:23.064Z,58.20
2023-04-28T23:19:50.605Z,58.40
2023-04-28T23:22:18.238Z,57.30
2023-04-28T23:24:45.458Z,57.80
2023-04-28T23:27:12.643Z,56.40
2023-04-28T23:29:39.969Z,55.50
2023-04-28T23:32:07.301Z,55.40
2023-04-28T23:34:38.120Z,55.00
2023-04-28T23:37:05.464Z,54.70
2023-04-28T23:39:32.826Z,54.60
2023-04-28T23:42:00.156Z,54.80
2023-04-28T23:44:27.417Z,55.00
2023-04-28T23:46:56.113Z,54.60
2023-04-28T23:49:24.082Z,54.80
2023-04-28T23:51:51.305Z,54.80
2023-04-28T23:54:18.652Z,54.90
2023-04-28T23:56:45.971Z,54.60
2023-04-28T23:59:13.332Z,54.80
